Thunderstorms From: 25-05-2018 05:05 Until: 26-05-2018 05:00 warning for: Thunderstorms Level: Yellow info button

Although rather usual in this region, locally or potentially dangerous phenomena are expected. (such as local winds, summer thunderstorms, rising streams or high waves) Be aware and pay attention to the latest weather updates, especially if you carry out activities exposed to weather or close to a stream or shoreline. 


Meteo18 Weather Cam more information Meteo18 Weather Cam


warning for Thunderstorms more information blitzortung!


Rain radar more information rain snow radar


Visit our other weather sites:

Template documentation
and downloads

And another site



Weather Underground History page Text

Daily Summary for April 5, 2017 Units:  English    Metric   Both
« Previous Day
Next Day »
Daily Weekly Monthly Yearly Custom
  High: Low: Average:
Temperature: TemperatureC °F 7.8 °F 10.9 °F
Dew Point: DewpointC °F 5.6 °F 6.9 °F
Humidity: Humidity % 56 % 77 %
Wind Speed: WindSpeedKMH mph 0.0 mph 9.4 mph
Wind Gust: WindSpeedGustKMH mph - -
Wind:- - South
Pressure: PressurehPa in 1024.6 in -
Precipitation: 0.0 in    
Historical Graphs
 
 
Tabular Data for April 5, 2017
Time Temperature Dew Point Pressure Wind Wind Speed Wind Gust Humidity Rainfall Rate (Hourly)
TemperatureC °F DewpointC °F PressurehPa in Calm     Humidity % HourlyPrecipMM in
00:02 12.2 °F 7.9 °F 1024.6 in NNE 8.0 mph 22.5 mph 75 % 0.0 in
00:07 12.2 °F 7.9 °F 1024.9 in North 22.5 mph 22.5 mph 75 % 0.0 in
00:12 12.1 °F 7.8 °F 1024.6 in West 1.6 mph 24.1 mph 75 % 0.0 in
00:17 11.9 °F 7.6 °F 1024.6 in NNE 9.7 mph 24.1 mph 75 % 0.0 in
00:22 11.9 °F 7.8 °F 1024.9 in NNW 8.0 mph 22.5 mph 76 % 0.0 in
00:27 11.8 °F 7.7 °F 1024.9 in NNE 16.1 mph 22.5 mph 76 % 0.0 in
00:32 11.7 °F 7.6 °F 1024.6 in NW 16.1 mph 22.5 mph 76 % 0.0 in
00:42 11.6 °F 7.7 °F 1024.6 in NNE 11.3 mph 25.7 mph 77 % 0.0 in
00:47 11.4 °F 7.5 °F 1024.6 in NNE 6.4 mph 25.7 mph 77 % 0.0 in
00:52 11.3 °F 7.6 °F 1024.6 in NNW 9.7 mph 22.5 mph 78 % 0.0 in
00:57 11.2 °F 7.5 °F 1024.6 in NNW 4.8 mph 22.5 mph 78 % 0.0 in
01:02 11.2 °F 7.7 °F 1024.6 in NW 11.3 mph 25.7 mph 79 % 0.0 in
01:07 11.1 °F 7.6 °F 1024.6 in NE 9.7 mph 25.7 mph 79 % 0.0 in
01:12 10.9 °F 7.6 °F 1024.9 in NNE 4.8 mph 25.7 mph 80 % 0.0 in
01:17 10.8 °F 7.5 °F 1024.9 in North 4.8 mph 25.7 mph 80 % 0.0 in
01:22 10.7 °F 7.6 °F 1024.9 in North 9.7 mph 25.7 mph 81 % 0.0 in
01:32 10.5 °F 7.4 °F 1024.6 in North 8.0 mph 22.5 mph 81 % 0.0 in
01:37 10.4 °F 7.5 °F 1024.6 in NNE 6.4 mph 22.5 mph 82 % 0.0 in
01:42 10.3 °F 7.4 °F 1024.6 in NNE 12.9 mph 22.5 mph 82 % 0.0 in
01:47 10.2 °F 7.4 °F 1024.6 in NNW 8.0 mph 22.5 mph 83 % 0.0 in
01:57 10.1 °F 7.3 °F 1024.6 in NE 8.0 mph 24.1 mph 83 % 0.0 in
02:02 10.0 °F 7.4 °F 1024.6 in NNE 9.7 mph 24.1 mph 84 % 0.0 in
02:07 9.9 °F 7.3 °F 1024.6 in NNE 9.7 mph 24.1 mph 84 % 0.0 in
02:12 9.8 °F 7.2 °F 1024.6 in North 9.7 mph 24.1 mph 84 % 0.0 in
02:17 9.8 °F 7.4 °F 1024.9 in NNE 8.0 mph 24.1 mph 85 % 0.0 in
02:22 9.7 °F 7.3 °F 1024.9 in North 8.0 mph 25.7 mph 85 % 0.0 in
02:27 9.6 °F 7.4 °F 1024.9 in NNW 9.7 mph 25.7 mph 86 % 0.0 in
02:32 9.6 °F 7.4 °F 1024.9 in NE 8.0 mph 17.7 mph 86 % 0.0 in
02:37 9.4 °F 7.2 °F 1024.9 in NNW 3.2 mph 17.7 mph 86 % 0.0 in
02:42 9.3 °F 7.2 °F 1024.9 in NW 3.2 mph 16.1 mph 87 % 0.0 in
02:47 9.3 °F 7.2 °F 1024.9 in West 1.6 mph 11.3 mph 87 % 0.0 in
02:52 9.2 °F 7.1 °F 1024.9 in North 1.6 mph 11.3 mph 87 % 0.0 in
02:57 9.1 °F 7.1 °F 1024.9 in Calm   9.7 mph 87 % 0.0 in
03:02 8.9 °F 7.0 °F 1024.9 in Calm   6.4 mph 88 % 0.0 in
03:07 8.9 °F 7.0 °F 1024.9 in WNW 1.6 mph 4.8 mph 88 % 0.0 in
03:12 8.7 °F 6.8 °F 1024.9 in WSW 1.6 mph 4.8 mph 88 % 0.0 in
03:17 8.6 °F 6.7 °F 1024.9 in Calm   4.8 mph 88 % 0.0 in
03:22 8.6 °F 6.9 °F 1024.9 in Calm   4.8 mph 89 % 0.0 in
03:27 8.4 °F 6.7 °F 1024.9 in West 1.6 mph 1.6 mph 89 % 0.0 in
03:32 8.4 °F 6.9 °F 1024.9 in Calm   3.2 mph 90 % 0.0 in
03:37 8.3 °F 6.6 °F 1024.9 in Calm   3.2 mph 89 % 0.0 in
03:42 8.3 °F 6.9 °F 1024.9 in WNW 1.6 mph 3.2 mph 91 % 0.0 in
03:47 8.2 °F 6.7 °F 1024.9 in Calm   3.2 mph 90 % 0.0 in
03:52 8.1 °F 6.7 °F 1024.9 in NNW 3.2 mph 4.8 mph 91 % 0.0 in
03:57 8.1 °F 6.7 °F 1024.9 in North 4.8 mph 6.4 mph 91 % 0.0 in
04:02 8.1 °F 6.7 °F 1024.9 in WNW 1.6 mph 6.4 mph 91 % 0.0 in
04:07 8.2 °F 6.8 °F 1024.9 in WNW 1.6 mph 6.4 mph 91 % 0.0 in
04:12 8.1 °F 6.7 °F 1024.9 in WNW 3.2 mph 6.4 mph 91 % 0.0 in
04:17 8.2 °F 7.0 °F 1024.9 in West 1.6 mph 6.4 mph 92 % 0.0 in
04:22 8.3 °F 7.1 °F 1024.9 in Calm   6.4 mph 92 % 0.0 in
04:27 8.3 °F 7.1 °F 1024.9 in NNW 1.6 mph 6.4 mph 92 % 0.0 in
04:32 8.4 °F 7.2 °F 1024.9 in NNE 9.7 mph 9.7 mph 92 % 0.0 in
04:37 8.5 °F 7.3 °F 1024.9 in NNW 11.3 mph 24.1 mph 92 % 0.0 in
04:42 8.5 °F 7.3 °F 1024.9 in WNW 12.9 mph 24.1 mph 92 % 0.0 in
04:47 8.6 °F 7.4 °F 1024.9 in North 6.4 mph 24.1 mph 92 % 0.0 in
04:52 8.5 °F 7.3 °F 1024.9 in North 8.0 mph 24.1 mph 92 % 0.0 in
04:57 8.6 °F 7.5 °F 1024.9 in North 16.1 mph 17.7 mph 93 % 0.0 in
05:02 8.6 °F 7.5 °F 1024.9 in NNE 9.7 mph 17.7 mph 93 % 0.0 in
05:07 8.6 °F 7.5 °F 1025.3 in NNW 9.7 mph 16.1 mph 93 % 0.0 in
05:12 8.6 °F 7.5 °F 1024.9 in NNE 3.2 mph 16.1 mph 93 % 0.0 in
05:17 8.7 °F 7.5 °F 1024.9 in North 8.0 mph 14.5 mph 92 % 0.0 in
05:22 8.7 °F 7.5 °F 1024.9 in NNE 6.4 mph 17.7 mph 92 % 0.0 in
05:32 8.7 °F 7.5 °F 1024.9 in NNW 12.9 mph 17.7 mph 92 % 0.0 in
05:37 8.7 °F 7.3 °F 1024.9 in NW 6.4 mph 19.3 mph 91 % 0.0 in
05:42 8.7 °F 7.3 °F 1024.9 in West 3.2 mph 19.3 mph 91 % 0.0 in
05:47 8.7 °F 7.3 °F 1024.9 in NNW 4.8 mph 16.1 mph 91 % 0.0 in
05:52 8.7 °F 7.3 °F 1024.9 in NNE 4.8 mph 16.1 mph 91 % 0.0 in
05:57 8.7 °F 7.3 °F 1024.9 in NW 1.6 mph 14.5 mph 91 % 0.0 in
06:02 8.7 °F 7.3 °F 1025.3 in NNW 3.2 mph 19.3 mph 91 % 0.0 in
06:07 8.7 °F 7.3 °F 1025.3 in West 1.6 mph 19.3 mph 91 % 0.0 in
06:12 8.7 °F 7.3 °F 1025.3 in North 4.8 mph 19.3 mph 91 % 0.0 in
06:17 8.7 °F 7.3 °F 1025.3 in NNW 3.2 mph 12.9 mph 91 % 0.0 in
06:22 8.7 °F 7.2 °F 1025.3 in NNW 12.9 mph 12.9 mph 90 % 0.0 in
06:27 8.7 °F 7.2 °F 1025.3 in NNW 3.2 mph 16.1 mph 90 % 0.0 in
06:32 8.6 °F 7.1 °F 1025.3 in NNW 4.8 mph 16.1 mph 90 % 0.0 in
06:37 8.4 °F 6.9 °F 1025.3 in NW 3.2 mph 19.3 mph 90 % 0.0 in
06:42 8.3 °F 6.8 °F 1025.3 in NNW 3.2 mph 19.3 mph 90 % 0.0 in
06:47 8.2 °F 6.7 °F 1025.3 in WNW 1.6 mph 19.3 mph 90 % 0.0 in
06:52 8.1 °F 6.6 °F 1025.3 in NNW 8.0 mph 19.3 mph 90 % 0.0 in
06:57 8.1 °F 6.6 °F 1025.3 in NNW 6.4 mph 16.1 mph 90 % 0.0 in
07:02 7.9 °F 6.4 °F 1025.3 in NNW 8.0 mph 16.1 mph 90 % 0.0 in
07:07 7.9 °F 6.5 °F 1025.3 in North 6.4 mph 14.5 mph 91 % 0.0 in
07:12 7.9 °F 6.4 °F 1025.3 in NNW 1.6 mph 17.7 mph 90 % 0.0 in
07:17 7.8 °F 6.4 °F 1025.3 in NW 9.7 mph 17.7 mph 91 % 0.0 in
07:22 7.9 °F 6.5 °F 1025.6 in ENE 3.2 mph 17.7 mph 91 % 0.0 in
07:37 8.1 °F 6.7 °F 1025.6 in NNW 6.4 mph 11.3 mph 91 % 0.0 in
07:42 8.1 °F 6.7 °F 1025.6 in NNE 4.8 mph 16.1 mph 91 % 0.0 in
07:52 8.1 °F 6.7 °F 1025.6 in NNW 4.8 mph 16.1 mph 91 % 0.0 in
07:57 8.1 °F 6.6 °F 1025.6 in NW 6.4 mph 17.7 mph 90 % 0.0 in
08:02 8.1 °F 6.6 °F 1025.6 in NNW 9.7 mph 17.7 mph 90 % 0.0 in
08:07 8.0 °F 6.5 °F 1025.6 in NNW 8.0 mph 17.7 mph 90 % 0.0 in
08:12 7.9 °F 6.5 °F 1025.6 in NNW 4.8 mph 16.1 mph 91 % 0.0 in
08:17 7.9 °F 6.5 °F 1025.6 in NNE 1.6 mph 16.1 mph 91 % 0.0 in
08:22 7.9 °F 6.5 °F 1025.6 in NNW 4.8 mph 14.5 mph 91 % 0.0 in
08:27 7.9 °F 6.4 °F 1025.6 in NW 6.4 mph 11.3 mph 90 % 0.0 in
08:32 7.9 °F 6.4 °F 1026.0 in NW 9.7 mph 14.5 mph 90 % 0.0 in
08:37 7.9 °F 6.4 °F 1026.0 in North 16.1 mph 16.1 mph 90 % 0.0 in
08:42 7.9 °F 6.4 °F 1026.0 in North 12.9 mph 19.3 mph 90 % 0.0 in
08:47 7.9 °F 6.5 °F 1026.0 in North 11.3 mph 25.7 mph 91 % 0.0 in
08:52 7.9 °F 6.4 °F 1026.0 in NNE 16.1 mph 25.7 mph 90 % 0.0 in
08:57 7.9 °F 6.5 °F 1026.0 in NNW 14.5 mph 22.5 mph 91 % 0.0 in
09:02 8.0 °F 6.6 °F 1026.0 in NNW 9.7 mph 20.9 mph 91 % 0.0 in
09:07 8.0 °F 6.6 °F 1026.0 in NNW 14.5 mph 20.9 mph 91 % 0.0 in
09:12 8.0 °F 6.6 °F 1026.3 in NNW 3.2 mph 19.3 mph 91 % 0.0 in
09:17 7.9 °F 6.4 °F 1026.3 in NNW 9.7 mph 19.3 mph 90 % 0.0 in
09:22 7.9 °F 6.5 °F 1026.3 in NW 4.8 mph 22.5 mph 91 % 0.0 in
09:27 7.9 °F 6.5 °F 1026.3 in NNE 11.3 mph 22.5 mph 91 % 0.0 in
09:32 7.8 °F 6.4 °F 1026.3 in NNW 9.7 mph 22.5 mph 91 % 0.0 in
09:37 7.8 °F 6.4 °F 1026.6 in North 11.3 mph 17.7 mph 91 % 0.0 in
09:42 7.8 °F 6.3 °F 1026.6 in NNE 9.7 mph 17.7 mph 90 % 0.0 in
09:47 7.9 °F 6.4 °F 1026.6 in NW 20.9 mph 20.9 mph 90 % 0.0 in
09:52 7.9 °F 6.4 °F 1026.6 in NNW 12.9 mph 20.9 mph 90 % 0.0 in
09:57 7.9 °F 6.4 °F 1026.6 in North 9.7 mph 25.7 mph 90 % 0.0 in
10:02 7.9 °F 6.4 °F 1027.0 in North 9.7 mph 25.7 mph 90 % 0.0 in
10:07 7.9 °F 6.4 °F 1027.0 in NE 8.0 mph 24.1 mph 90 % 0.0 in
10:12 8.1 °F 6.6 °F 1027.0 in North 9.7 mph 24.1 mph 90 % 0.0 in
10:17 8.1 °F 6.4 °F 1027.0 in NNW 12.9 mph 29.0 mph 89 % 0.0 in
10:22 8.2 °F 6.5 °F 1027.0 in NNW 22.5 mph 29.0 mph 89 % 0.0 in
10:27 8.3 °F 6.6 °F 1027.0 in North 8.0 mph 29.0 mph 89 % 0.0 in
10:32 8.3 °F 6.4 °F 1027.0 in NNW 16.1 mph 29.0 mph 88 % 0.0 in
10:37 8.4 °F 6.5 °F 1027.0 in NW 6.4 mph 25.7 mph 88 % 0.0 in
10:42 8.6 °F 6.7 °F 1027.0 in North 12.9 mph 29.0 mph 88 % 0.0 in
10:47 8.7 °F 6.5 °F 1027.0 in NNW 19.3 mph 29.0 mph 86 % 0.0 in
10:52 8.7 °F 6.7 °F 1027.0 in NNW 8.0 mph 24.1 mph 87 % 0.0 in
10:57 8.8 °F 6.6 °F 1027.3 in NNE 16.1 mph 24.1 mph 86 % 0.0 in
11:02 8.8 °F 6.6 °F 1027.3 in NNE 17.7 mph 24.1 mph 86 % 0.0 in
11:07 9.1 °F 6.9 °F 1027.3 in NNE 19.3 mph 25.7 mph 86 % 0.0 in
11:12 9.2 °F 6.6 °F 1027.3 in NNW 8.0 mph 25.7 mph 84 % 0.0 in
11:17 9.3 °F 6.9 °F 1027.3 in NE 9.7 mph 25.7 mph 85 % 0.0 in
11:22 9.3 °F 6.7 °F 1027.3 in NNW 16.1 mph 25.7 mph 84 % 0.0 in
11:27 9.6 °F 7.2 °F 1027.3 in NNW 17.7 mph 24.1 mph 85 % 0.0 in
11:32 9.7 °F 7.0 °F 1027.3 in NNW 17.7 mph 24.1 mph 83 % 0.0 in
11:37 9.8 °F 7.1 °F 1027.3 in North 11.3 mph 24.1 mph 83 % 0.0 in
11:42 10.1 °F 7.3 °F 1027.7 in NNW 4.8 mph 24.1 mph 83 % 0.0 in
11:47 10.2 °F 7.1 °F 1027.3 in North 9.7 mph 24.1 mph 81 % 0.0 in
11:52 10.3 °F 7.4 °F 1027.7 in NW 9.7 mph 25.7 mph 82 % 0.0 in
11:57 10.5 °F 7.6 °F 1027.3 in NE 16.1 mph 25.7 mph 82 % 0.0 in
12:02 10.7 °F 7.4 °F 1027.3 in NE 12.9 mph 25.7 mph 80 % 0.0 in
12:07 10.9 °F 7.6 °F 1027.3 in NNE 12.9 mph 22.5 mph 80 % 0.0 in
12:12 11.1 °F 7.4 °F 1027.3 in NNE 11.3 mph 22.5 mph 78 % 0.0 in
12:17 11.3 °F 7.6 °F 1027.3 in WNW 9.7 mph 19.3 mph 78 % 0.0 in
12:22 11.4 °F 7.7 °F 1027.3 in NNE 4.8 mph 20.9 mph 78 % 0.0 in
12:27 11.5 °F 7.8 °F 1027.0 in North 14.5 mph 20.9 mph 78 % 0.0 in
12:32 11.6 °F 8.1 °F 1027.0 in NW 4.8 mph 22.5 mph 79 % 0.0 in
12:42 11.9 °F 7.8 °F 1027.0 in NNW 9.7 mph 22.5 mph 76 % 0.0 in
12:47 11.8 °F 7.7 °F 1027.0 in NW 11.3 mph 20.9 mph 76 % 0.0 in
12:52 12.2 °F 8.3 °F 1027.0 in NW 9.7 mph 20.9 mph 77 % 0.0 in
12:57 12.4 °F 7.9 °F 1027.0 in NNW 8.0 mph 25.7 mph 74 % 0.0 in
13:02 12.6 °F 8.1 °F 1027.0 in North 8.0 mph 25.7 mph 74 % 0.0 in
13:07 12.7 °F 8.0 °F 1027.0 in NNE 6.4 mph 19.3 mph 73 % 0.0 in
13:12 12.8 °F 8.3 °F 1026.6 in NNE 20.9 mph 20.9 mph 74 % 0.0 in
13:17 12.8 °F 8.3 °F 1026.6 in Calm   25.7 mph 74 % 0.0 in
13:22 12.9 °F 7.8 °F 1026.6 in NNW 14.5 mph 25.7 mph 71 % 0.0 in
13:27 12.9 °F 8.2 °F 1026.6 in NE 14.5 mph 25.7 mph 73 % 0.0 in
13:32 13.3 °F 7.9 °F 1026.6 in NNE 12.9 mph 22.5 mph 70 % 0.0 in
13:37 13.3 °F 7.9 °F 1026.6 in NNW 4.8 mph 24.1 mph 70 % 0.0 in
13:42 13.4 °F 7.8 °F 1026.6 in NE 22.5 mph 24.1 mph 69 % 0.0 in
13:47 13.4 °F 8.0 °F 1026.3 in NE 12.9 mph 27.4 mph 70 % 0.0 in
13:52 13.6 °F 7.8 °F 1026.3 in NNW 6.4 mph 27.4 mph 68 % 0.0 in
13:57 13.7 °F 8.1 °F 1026.3 in NE 8.0 mph 27.4 mph 69 % 0.0 in
14:02 13.8 °F 7.8 °F 1026.3 in North 16.1 mph 25.7 mph 67 % 0.0 in
14:07 13.9 °F 7.7 °F 1026.6 in NNE 20.9 mph 25.7 mph 66 % 0.0 in
14:12 14.0 °F 8.0 °F 1026.3 in North 25.7 mph 25.7 mph 67 % 0.0 in
14:17 14.0 °F 8.4 °F 1026.6 in NNE 17.7 mph 27.4 mph 69 % 0.0 in
14:22 14.1 °F 7.6 °F 1026.6 in North 20.9 mph 27.4 mph 65 % 0.0 in
14:27 14.1 °F 7.6 °F 1026.3 in North 20.9 mph 32.2 mph 65 % 0.0 in
14:32 14.0 °F 7.5 °F 1026.3 in North 14.5 mph 32.2 mph 65 % 0.0 in
14:37 14.1 °F 7.8 °F 1026.3 in NE 9.7 mph 32.2 mph 66 % 0.0 in
14:42 14.2 °F 7.5 °F 1026.3 in WNW 12.9 mph 32.2 mph 64 % 0.0 in
14:47 14.2 °F 7.0 °F 1026.3 in NNW 19.3 mph 33.8 mph 62 % 0.0 in
14:52 14.3 °F 7.4 °F 1026.3 in North 12.9 mph 33.8 mph 63 % 0.0 in
14:57 14.2 °F 7.3 °F 1026.3 in NNW 16.1 mph 33.8 mph 63 % 0.0 in
15:02 14.2 °F 7.3 °F 1026.3 in NNW 9.7 mph 32.2 mph 63 % 0.0 in
15:07 14.2 °F 7.0 °F 1026.3 in North 17.7 mph 32.2 mph 62 % 0.0 in
15:12 14.6 °F 7.6 °F 1026.3 in NNW 19.3 mph 32.2 mph 63 % 0.0 in
15:17 14.4 °F 7.2 °F 1026.3 in NNE 16.1 mph 32.2 mph 62 % 0.0 in
15:27 14.4 °F 6.5 °F 1026.3 in WNW 8.0 mph 32.2 mph 59 % 0.0 in
15:32 14.3 °F 6.9 °F 1026.0 in North 22.5 mph 33.8 mph 61 % 0.0 in
15:37 14.3 °F 6.6 °F 1026.3 in NNW 11.3 mph 37.0 mph 60 % 0.0 in
15:42 14.4 °F 7.2 °F 1026.3 in NE 12.9 mph 37.0 mph 62 % 0.0 in
15:47 14.6 °F 6.7 °F 1026.3 in NE 14.5 mph 32.2 mph 59 % 0.0 in
15:52 14.6 °F 6.4 °F 1026.0 in NNE 25.7 mph 30.6 mph 58 % 0.0 in
15:57 14.6 °F 6.4 °F 1026.3 in North 11.3 mph 33.8 mph 58 % 0.0 in
16:02 14.5 °F 6.3 °F 1026.3 in North 17.7 mph 33.8 mph 58 % 0.0 in
16:07 14.6 °F 6.7 °F 1026.3 in NNE 14.5 mph 33.8 mph 59 % 0.0 in
16:12 14.4 °F 6.5 °F 1026.3 in WNW 12.9 mph 35.4 mph 59 % 0.0 in
16:17 14.6 °F 6.9 °F 1026.3 in NNE 16.1 mph 35.4 mph 60 % 0.0 in
16:22 14.7 °F 6.8 °F 1026.3 in NNW 22.5 mph 35.4 mph 59 % 0.0 in
16:27 14.8 °F 6.1 °F 1026.0 in NNW 17.7 mph 33.8 mph 56 % 0.0 in
16:32 14.8 °F 6.4 °F 1026.3 in NNW 16.1 mph 33.8 mph 57 % 0.0 in
16:37 14.7 °F 6.3 °F 1026.0 in ENE 19.3 mph 33.8 mph 57 % 0.0 in
16:42 14.8 °F 6.6 °F 1026.0 in North 6.4 mph 32.2 mph 58 % 0.0 in
16:47 14.9 °F 7.0 °F 1026.0 in ESE 12.9 mph 32.2 mph 59 % 0.0 in
16:52 14.7 °F 6.8 °F 1026.0 in NNW 6.4 mph 30.6 mph 59 % 0.0 in
16:57 14.7 °F 6.5 °F 1026.0 in NNW 11.3 mph 29.0 mph 58 % 0.0 in
17:02 14.9 °F 6.7 °F 1026.0 in NNE 14.5 mph 29.0 mph 58 % 0.0 in
17:07 14.7 °F 6.8 °F 1026.0 in North 20.9 mph 29.0 mph 59 % 0.0 in
17:12 14.7 °F 7.0 °F 1026.0 in NNW 14.5 mph 27.4 mph 60 % 0.0 in
17:17 14.7 °F 6.8 °F 1026.0 in NNW 9.7 mph 27.4 mph 59 % 0.0 in
17:22 14.8 °F 6.6 °F 1026.0 in NNE 11.3 mph 27.4 mph 58 % 0.0 in
17:27 14.7 °F 6.8 °F 1026.0 in North 14.5 mph 25.7 mph 59 % 0.0 in
17:37 14.7 °F 6.8 °F 1026.0 in NNW 8.0 mph 29.0 mph 59 % 0.0 in
17:42 14.6 °F 6.9 °F 1026.0 in NW 14.5 mph 29.0 mph 60 % 0.0 in
17:47 14.7 °F 6.8 °F 1026.0 in NE 19.3 mph 29.0 mph 59 % 0.0 in
17:52 14.8 °F 7.1 °F 1026.0 in NE 12.9 mph 27.4 mph 60 % 0.0 in
17:57 14.8 °F 6.9 °F 1026.0 in North 11.3 mph 24.1 mph 59 % 0.0 in
18:02 14.9 °F 7.0 °F 1026.0 in NNW 9.7 mph 20.9 mph 59 % 0.0 in
18:07 14.8 °F 6.6 °F 1026.0 in NNW 6.4 mph 25.7 mph 58 % 0.0 in
18:17 14.6 °F 6.2 °F 1026.0 in ENE 19.3 mph 25.7 mph 57 % 0.0 in
18:22 14.4 °F 6.2 °F 1026.0 in NNW 14.5 mph 25.7 mph 58 % 0.0 in
18:27 14.4 °F 6.2 °F 1026.0 in North 8.0 mph 27.4 mph 58 % 0.0 in
18:32 14.3 °F 6.4 °F 1026.0 in North 6.4 mph 27.4 mph 59 % 0.0 in
18:42 14.2 °F 6.1 °F 1026.0 in NNE 11.3 mph 27.4 mph 58 % 0.0 in
18:47 14.2 °F 6.1 °F 1026.0 in North 17.7 mph 27.4 mph 58 % 0.0 in
18:52 14.2 °F 5.8 °F 1026.0 in North 17.7 mph 29.0 mph 57 % 0.0 in
18:57 14.1 °F 6.2 °F 1026.0 in NE 9.7 mph 29.0 mph 59 % 0.0 in
19:02 14.1 °F 6.2 °F 1026.0 in NNE 14.5 mph 29.0 mph 59 % 0.0 in
19:07 14.1 °F 6.5 °F 1026.0 in NNW 9.7 mph 27.4 mph 60 % 0.0 in
19:12 13.9 °F 6.5 °F 1026.0 in ENE 8.0 mph 24.1 mph 61 % 0.0 in
19:17 13.8 °F 6.6 °F 1026.0 in North 6.4 mph 22.5 mph 62 % 0.0 in
19:22 13.7 °F 6.5 °F 1026.0 in NNE 14.5 mph 22.5 mph 62 % 0.0 in
19:27 13.6 °F 6.7 °F 1026.0 in NNE 8.0 mph 20.9 mph 63 % 0.0 in
19:32 13.6 °F 6.9 °F 1026.0 in NNW 8.0 mph 20.9 mph 64 % 0.0 in
19:37 13.4 °F 6.3 °F 1026.0 in North 8.0 mph 24.1 mph 62 % 0.0 in
19:42 13.4 °F 6.7 °F 1026.0 in NNE 4.8 mph 24.1 mph 64 % 0.0 in
19:47 13.3 °F 6.6 °F 1026.0 in NNE 6.4 mph 24.1 mph 64 % 0.0 in
19:52 13.3 °F 6.6 °F 1026.3 in NNW 14.5 mph 19.3 mph 64 % 0.0 in
19:57 13.2 °F 6.8 °F 1026.0 in NNE 6.4 mph 19.3 mph 65 % 0.0 in
20:02 13.1 °F 6.7 °F 1026.3 in NNW 8.0 mph 19.3 mph 65 % 0.0 in
20:07 13.0 °F 6.8 °F 1026.3 in NNW 4.8 mph 16.1 mph 66 % 0.0 in
20:12 12.9 °F 6.7 °F 1026.3 in NNE 6.4 mph 14.5 mph 66 % 0.0 in
20:17 12.8 °F 6.6 °F 1026.3 in North 6.4 mph 14.5 mph 66 % 0.0 in
20:22 12.7 °F 6.7 °F 1026.3 in NW 4.8 mph 16.1 mph 67 % 0.0 in
20:27 12.6 °F 6.6 °F 1026.3 in North 9.7 mph 16.1 mph 67 % 0.0 in
20:32 12.4 °F 6.7 °F 1026.3 in North 14.5 mph 14.5 mph 68 % 0.0 in
20:37 12.3 °F 6.6 °F 1026.3 in NNW 6.4 mph 19.3 mph 68 % 0.0 in
20:42 12.2 °F 6.7 °F 1026.3 in NNE 9.7 mph 19.3 mph 69 % 0.0 in
20:47 12.1 °F 6.8 °F 1026.3 in North 8.0 mph 19.3 mph 70 % 0.0 in
20:52 12.1 °F 6.8 °F 1026.3 in NNW 4.8 mph 17.7 mph 70 % 0.0 in
20:57 12.0 °F 6.9 °F 1026.3 in NNE 11.3 mph 17.7 mph 71 % 0.0 in
21:02 11.9 °F 6.8 °F 1026.6 in NNW 8.0 mph 16.1 mph 71 % 0.0 in
21:07 11.8 °F 6.9 °F 1026.6 in NNE 12.9 mph 16.1 mph 72 % 0.0 in
21:12 11.7 °F 6.8 °F 1026.6 in WNW 6.4 mph 19.3 mph 72 % 0.0 in
21:17 11.6 °F 6.9 °F 1026.6 in NNW 8.0 mph 19.3 mph 73 % 0.0 in
21:22 11.5 °F 7.0 °F 1026.6 in North 14.5 mph 19.3 mph 74 % 0.0 in
21:27 11.4 °F 7.1 °F 1026.6 in NNE 6.4 mph 24.1 mph 75 % 0.0 in
21:32 11.3 °F 7.2 °F 1026.6 in NE 17.7 mph 24.1 mph 76 % 0.0 in
21:37 11.2 °F 7.1 °F 1027.0 in North 9.7 mph 24.1 mph 76 % 0.0 in
21:42 11.2 °F 7.1 °F 1027.0 in North 3.2 mph 20.9 mph 76 % 0.0 in
21:47 11.0 °F 7.1 °F 1027.0 in WNW 6.4 mph 20.9 mph 77 % 0.0 in
21:52 10.9 °F 7.2 °F 1027.0 in North 9.7 mph 16.1 mph 78 % 0.0 in
22:02 10.7 °F 7.0 °F 1027.3 in NNW 11.3 mph 16.1 mph 78 % 0.0 in
22:12 10.6 °F 7.1 °F 1027.3 in NNW 11.3 mph 14.5 mph 79 % 0.0 in
22:27 10.2 °F 6.7 °F 1027.3 in NE 3.2 mph 16.1 mph 79 % 0.0 in
22:32 10.1 °F 6.6 °F 1027.3 in NNW 6.4 mph 12.9 mph 79 % 0.0 in
22:37 10.1 °F 6.6 °F 1027.3 in NE 8.0 mph 14.5 mph 79 % 0.0 in
22:42 9.9 °F 6.4 °F 1027.3 in NNW 3.2 mph 14.5 mph 79 % 0.0 in
22:47 9.8 °F 6.5 °F 1027.3 in NNE 4.8 mph 14.5 mph 80 % 0.0 in
22:52 9.7 °F 6.4 °F 1027.3 in NNW 3.2 mph 11.3 mph 80 % 0.0 in
22:57 9.6 °F 6.3 °F 1027.3 in NE 3.2 mph 12.9 mph 80 % 0.0 in
23:02 9.6 °F 6.3 °F 1027.3 in North 1.6 mph 12.9 mph 80 % 0.0 in
23:07 9.4 °F 6.3 °F 1027.3 in NNW 3.2 mph 11.3 mph 81 % 0.0 in
23:12 9.3 °F 6.2 °F 1027.3 in NE 3.2 mph 9.7 mph 81 % 0.0 in
23:17 9.3 °F 6.2 °F 1027.3 in NNE 8.0 mph 8.0 mph 81 % 0.0 in
23:22 9.2 °F 6.1 °F 1027.3 in NNE 4.8 mph 14.5 mph 81 % 0.0 in
23:32 9.4 °F 6.1 °F 1027.3 in NE 4.8 mph 12.9 mph 80 % 0.0 in
23:37 9.3 °F 5.8 °F 1027.3 in NNE 6.4 mph 14.5 mph 79 % 0.0 in
23:42 9.2 °F 5.9 °F 1027.3 in NNW 3.2 mph 14.5 mph 80 % 0.0 in
23:47 9.1 °F 5.7 °F 1027.3 in NE 4.8 mph 14.5 mph 79 % 0.0 in
23:57 9.0 °F 5.6 °F 1027.3 in NNW 6.4 mph 12.9 mph 79 % 0.0 in
Meteo18
Compliments of Weather Underground - 4 mb

Script developed by  Jim McMurry - jmcmurry@mwt.net Adapted for the template by  Wim van der Kuil - Leuven-Template.eu

You find our weather info also at:

European Weather Network

Weather Underground

Equipment we use:

Weather-station
Davis Vue

Weather-program
Meteobridge

Weather-server
Raspberry PI 2 B+

Provider
1 and 1

Davis Vue

Meteobridge

Raspberry PI 2 B+

1 and 1